Home > Products > Valid Products > MTR

000
SAUS41 KLWX 250800
MTRRYT
METAR KRYT 250753Z AUTO 00000KT 10SM CLR 06/M03 A2999 RMK AO2 SLP159
T00561028 $





000
SAUS41 KLWX 250759
MTRRSP
METAR KRSP 250754Z AUTO 16005KT 10SM SCT120 10/M08 A2999 RMK AO2
SLP162 T01001083





000
SAUS41 KLWX 250758
MTRDMH
METAR KDMH 250754Z AUTO 11/01 A3002 RMK AO1 SLP165 T01060006





000
SAUS41 KLWX 250758 COR
MTRNAK
METAR KNAK 250754Z AUTO 00000KT 10SM CLR 08/06 A3001 RMK AO2 SLP165
T00830056





000
SAUS41 KLWX 250700
MTRRYT
METAR KRYT 250653Z AUTO 00000KT 10SM CLR 06/M04 A2998 RMK AO2 SLP154
T00611044 $





000
SAUS41 KLWX 250659
MTRRSP
METAR KRSP 250654Z AUTO 18005KT 10SM CLR 09/M09 A2998 RMK AO2 SLP159
T00941089





000
SAUS41 KLWX 250658
MTRDMH
METAR KDMH 250654Z AUTO 11/02 A3000 RMK AO1 SLP160 T01110022





000
SAUS41 KLWX 250658 COR
MTRNAK
METAR KNAK 250654Z AUTO 00000KT 10SM CLR 08/04 A3000 RMK AO2 SLP159
T00830039





000
SAUS41 KLWX 250600
MTRRYT
METAR KRYT 250553Z AUTO 00000KT 10SM CLR 06/M04 A2999 RMK AO2 SLP158
T00561039 10128 20056 58008 $





000
SAUS41 KLWX 250559
MTRRSP
METAR KRSP 250554Z AUTO 18005KT 10SM CLR 11/M09 A2999 RMK AO2 SLP164
T01061094 10122 20106 58009





000
SAUS41 KLWX 250558
MTRDMH
METAR KDMH 250554Z AUTO 11/M01 A3002 RMK AO1 SLP166 T01111006 10167
20111 58003





000
SAUS41 KLWX 250558 COR
MTRNAK
METAR KNAK 250554Z AUTO 00000KT 10SM CLR 09/05 A3000 RMK AO2 SLP161
T00940050 10156 20089 58009





000
SAUS41 KLWX 250500
MTRRYT
METAR KRYT 250453Z AUTO 00000KT 10SM CLR 07/M04 A3001 RMK AO2 SLP165
T00671044 401610028 $





000
SAUS41 KLWX 250459
MTRRSP
METAR KRSP 250454Z AUTO 20005KT 10SM CLR 11/M09 A3002 RMK AO2 SLP173
T01061089 401440000





000
SAUS41 KLWX 250458
MTRDMH
METAR KDMH 250454Z AUTO 12/00 A3003 RMK AO1 SLP170 T01220000
401830061





000
SAUS41 KLWX 250458 COR
MTRNAK
METAR KNAK 250454Z AUTO 00000KT 10SM CLR 09/04 A3003 RMK AO2 SLP171
T00940039 401720067





000
SAUS41 KLWX 250400
MTRRYT
METAR KRYT 250353Z AUTO 00000KT 10SM CLR 07/M03 A3001 RMK AO2 SLP166
T00671033 $





000
SAUS41 KLWX 250359
MTRRSP
METAR KRSP 250354Z AUTO 20005KT 10SM CLR 11/M10 A3002 RMK AO2 SLP174
T01111100





000
SAUS41 KLWX 250358
MTRDMH
METAR KDMH 250354Z AUTO 13/M02 A3003 RMK AO1 SLP169 T01281022





000
SAUS41 KLWX 250357 COR
MTRNAK
METAR KNAK 250354Z AUTO 00000KT 10SM CLR 10/03 A3003 RMK AO2 SLP171
T01000033





000
SAUS41 KLWX 250300
MTRRYT
METAR KRYT 250253Z AUTO 00000KT 10SM CLR 07/M03 A3001 RMK AO2 SLP167
T00721033 50006 $





000
SAUS41 KLWX 250259
MTRRSP
METAR KRSP 250254Z AUTO 17004KT 10SM CLR 11/M11 A3002 RMK AO2 SLP175
T01111106 50004





000
SAUS41 KLWX 250258
MTRDMH
METAR KDMH 250254Z AUTO 14/M04 A3003 RMK AO1 SLP169 T01391039 50006





000
SAUS41 KLWX 250258 COR
MTRNAK
METAR KNAK 250254Z AUTO 00000KT 10SM CLR 11/02 A3003 RMK AO2 SLP170
T01060022 50006





000
SAUS41 KLWX 250200
MTRRYT
METAR KRYT 250153Z AUTO 00000KT 10SM CLR 08/M03 A3001 RMK AO2 SLP169
T00831033 $





000
SAUS41 KLWX 250159
MTRRSP
METAR KRSP 250154Z AUTO 12003KT 10SM CLR 12/M11 A3002 RMK AO2 SLP178
T01171106





000
SAUS41 KLWX 250158
MTRDMH
METAR KDMH 250154Z AUTO 14/M03 A3003 RMK AO1 SLP170 T01441033





000
SAUS41 KLWX 250157 COR
MTRNAK
METAR KNAK 250154Z AUTO 00000KT 10SM CLR 11/01 A3003 RMK AO2 SLP172
T01110006





000
SAUS41 KLWX 250100
MTRRYT
METAR KRYT 250053Z AUTO 00000KT 10SM CLR 11/M06 A3000 RMK AO2 SLP163
T01061056 $





000
SAUS41 KLWX 250059
MTRRSP
METAR KRSP 250054Z AUTO 00000KT 10SM CLR 11/M09 A3001 RMK AO2 SLP176
T01111094





000
SAUS41 KLWX 250058 COR
MTRNAK
METAR KNAK 250054Z AUTO 00000KT 10SM CLR 13/02 A3002 RMK AO2 SLP166
T01280017





000
SAUS41 KLWX 250058
MTRDMH
METAR KDMH 250054Z AUTO 16/M07 A3002 RMK AO1 SLP165 T01561072





000
SAUS41 KLWX 250000
MTRRYT
METAR KRYT 242353Z AUTO 00000KT 10SM CLR 13/M05 A2999 RMK AO2 SLP161
T01281050 10161 20128 53003 $





000
SAUS41 KLWX 242359
MTRRSP
METAR KRSP 242354Z AUTO 00000KT 10SM CLR 12/M06 A3001 RMK AO2 SLP176
T01171056 10144 20111 53004





000
SAUS41 KLWX 242358 COR
MTRNAK
METAR KNAK 242354Z AUTO 26003KT 10SM CLR 16/M08 A3001 RMK AO2 SLP164
T01561078 10172 20139 53006





000
SAUS41 KLWX 242358
MTRDMH
METAR KDMH 242354Z AUTO 17/M08 A3001 RMK AO1 SLP163 T01671083 10183
20150 53005





000
SAUS41 KLWX 242300
MTRRYT
METAR KRYT 242253Z AUTO 28003KT 10SM CLR 16/M09 A2999 RMK AO2 SLP158
T01561089 $





000
SAUS41 KLWX 242259
MTRRSP
METAR KRSP 242254Z AUTO 01005KT 10SM CLR 14/M10 A3000 RMK AO2 SLP173
T01391100





000
SAUS41 KLWX 242259 COR
MTRNAK
METAR KNAK 242254Z AUTO 32004KT 10SM CLR 17/M04 A3000 RMK AO2 SLP160
T01671039





000
SAUS41 KLWX 242258
MTRDMH
METAR KDMH 242254Z AUTO 17/M08 A3000 RMK AO1 SLP159 T01721078





000
SAUS41 KLWX 242200
MTRRYT
METAR KRYT 242153Z AUTO VRB04KT 10SM CLR 16/M08 A2999 RMK AO2 SLP156
T01611083 $





000
SAUS41 KLWX 242159
MTRRSP
METAR KRSP 242154Z AUTO 32009G16KT 290V350 10SM CLR 14/M10 A3000 RMK
AO2 SLP171 T01441100





000
SAUS41 KLWX 242159 COR
MTRNAK
METAR KNAK 242154Z AUTO 33008KT 10SM CLR 17/M02 A3000 RMK AO2 SLP159
T01671022





000
SAUS41 KLWX 242158
MTRDMH
METAR KDMH 242154Z AUTO 17/M09 A3000 RMK AO1 SLP160 T01721089





000
SAUS41 KLWX 242100
MTRRYT
METAR KRYT 242053Z AUTO 27006KT 10SM CLR 16/M09 A2998 RMK AO2 SLP156
T01611089 56017 $





000
SAUS41 KLWX 242059
MTRRSP
METAR KRSP 242054Z AUTO VRB06KT 10SM CLR 14/M09 A3000 RMK AO2 SLP169
T01441094 56012





000
SAUS41 KLWX 242058
MTRDMH
METAR KDMH 242054Z AUTO 18/M08 A3000 RMK AO1 SLP158 T01831083 56015





000
SAUS41 KLWX 242058 COR
MTRNAK
METAR KNAK 242054Z AUTO 33008KT 10SM CLR 17/M06 A2999 RMK AO2 SLP158
T01671056 56016





000
SAUS41 KLWX 242000
MTRRYT
METAR KRYT 241953Z AUTO 24008KT 10SM CLR 15/M07 A2999 RMK AO2 SLP159
T01501072 $





000
SAUS41 KLWX 241959
MTRRSP
METAR KRSP 241954Z AUTO 29008KT 250V360 10SM CLR 14/M09 A3000 RMK
AO2 SLP171 T01391089





000
SAUS41 KLWX 241958
MTRDMH
METAR KDMH 241954Z AUTO 17/M09 A3001 RMK AO1 SLP161 T01721089





000
SAUS41 KLWX 241958 COR
MTRNAK
METAR KNAK 241954Z AUTO 33011KT 10SM CLR 16/M03 A3000 RMK AO2 SLP160
T01561028





000
SAUS41 KLWX 241900
MTRRYT
METAR KRYT 241853Z AUTO 28007KT 240V320 10SM CLR 14/M07 A3001 RMK
AO2 SLP165 T01391072 $





000
SAUS41 KLWX 241859
MTRRSP
METAR KRSP 241854Z AUTO 33008G16KT 290V010 10SM CLR 12/M09 A3002 RMK
AO2 SLP176 T01221089





000
SAUS41 KLWX 241858
MTRDMH
METAR KDMH 241854Z AUTO 17/M08 A3003 RMK AO1 SLP168 T01671083





000
SAUS41 KLWX 241857 COR
MTRNAK
METAR KNAK 241854Z AUTO 34011KT 10SM CLR 15/M04 A3002 RMK AO2 SLP169
T01501044





000
SAUS41 KLWX 241800
MTRRYT
METAR KRYT 241753Z AUTO 31006G14KT 10SM CLR 14/M08 A3004 RMK AO2
SLP174 T01391078 10139 20044 58020 $





000
SAUS41 KLWX 241759
MTRRSP
METAR KRSP 241754Z AUTO 34011G21KT 300V010 10SM CLR 11/M10 A3004 RMK
AO2 SLP183 6//// T01111100 10117 20006





000
SAUS41 KLWX 241758
MTRDMH
METAR KDMH 241754Z AUTO 15/M11 A3004 RMK AO1 SLP173 T01501106 10156
20083 58022





000
SAUS41 KLWX 241758 COR
MTRNAK
METAR KNAK 241754Z AUTO 33011KT 10SM CLR 14/M04 A3004 RMK AO2 SLP174
T01391039 10139 20083 58020





000
SAUS41 KLWX 241700
MTRRYT
METAR KRYT 241653Z AUTO 27008KT 10SM CLR 12/M08 A3006 RMK AO2 SLP181
T01221078 $





000
SAUS41 KLWX 241659
MTRRSP
METAR KRSP 241654Z AUTO 34010G19KT 10SM CLR 10/M09 RMK AO2 SLPNO
T01001094 PWINO $





000
SAUS41 KLWX 241658
MTRDMH
METAR KDMH 241654Z AUTO 14/M11 A3007 RMK AO1 SLP182 T01441106





000
SAUS41 KLWX 241658 COR
MTRNAK
METAR KNAK 241654Z AUTO 33009KT 10SM CLR 13/M06 A3007 RMK AO2 SLP184
T01331056





000
SAUS41 KLWX 241600
MTRRYT
METAR KRYT 241553Z AUTO VRB03KT 10SM CLR 11/M09 A3008 RMK AO2 SLP190
T01061089 $





000
SAUS41 KLWX 241558
MTRDMH
METAR KDMH 241554Z AUTO 13/M08 A3009 RMK AO1 SLP188 T01331083





000
SAUS41 KLWX 241558 COR
MTRNAK
METAR KNAK 241554Z AUTO 34010KT 10SM CLR 12/M04 A3009 RMK AO2 SLP191
T01221039





000
SAUS41 KLWX 241509
MTRRSP
METAR KRSP 241454Z AUTO 34007G17KT 310V010 10SM CLR 07/M08 A3008 RMK
AO2 SLP202 T00721083 51005 $





000
SAUS41 KLWX 241500
MTRRYT
METAR KRYT 241453Z AUTO 35007KT 310V010 10SM CLR 09/M08 A3010 RMK
AO2 SLP196 T00941078 50002 $





000
SAUS41 KLWX 241458
MTRDMH
METAR KDMH 241454Z AUTO 12/M09 A3011 RMK AO1 SLP195 T01171094 50001





000
SAUS41 KLWX 241456
MTRNAK
METAR KNAK 241454Z AUTO 31010KT 10SM CLR 11/M06 A3010 RMK AO2 SLP195
T01111056 50003





000
SAUS41 KLWX 241409
MTRRSP
METAR KRSP 241354Z AUTO 33014G21KT 10SM CLR 06/M07 A3008 RMK AO2
SLP201 T00561072 $





000
SAUS41 KLWX 241400
MTRRYT
METAR KRYT 241353Z AUTO 29007G17KT 250V340 10SM CLR 07/M08 A3010 RMK
AO2 SLP199 T00721078 $





000
SAUS41 KLWX 241400 COR
MTRDMH
METAR KDMH 241354Z AUTO 11/M08 A3011 RMK AO1 SLP197 T01061083





000
SAUS41 KLWX 241359 COR
MTRDMH
METAR KDMH 241354Z AUTO 11/M08 A3011 RMK AO1 SLP197 T01061083





000
SAUS41 KLWX 241358 COR
MTRDMH
METAR KDMH 241354Z AUTO 11/M08 A3011 RMK AO1 SLP197 T01061083





000
SAUS41 KLWX 241358 COR
MTRNAK
METAR KNAK 241354Z AUTO 31012G21KT 10SM CLR 10/M04 A3011 RMK AO2
SLP196 T01001039





000
SAUS41 KLWX 241309
MTRRSP
METAR KRSP 241254Z AUTO 34007G21KT 10SM CLR 04/M07 A3008 RMK AO2
SLP203 T00391067 $





000
SAUS41 KLWX 241300
MTRRYT
METAR KRYT 241253Z AUTO VRB05KT 10SM CLR 06/M06 A3011 RMK AO2 SLP203
T00561061 $





000
SAUS41 KLWX 241258 COR
MTRNAK
METAR KNAK 241254Z AUTO 32011KT 10SM CLR 09/M03 A3011 RMK AO2 SLP198
T00891033





000
SAUS41 KLWX 241258
MTRDMH
METAR KDMH 241254Z AUTO 09/M06 A3012 RMK AO1 SLP198 T00941061





000
SAUS41 KLWX 241209
MTRRSP
METAR KRSP 241154Z AUTO 34010G15KT 10SM CLR 02/M07 A3007 RMK AO2
SLP199 T00221072 10033 20000 53024 $





000
SAUS41 KLWX 241200
MTRRYT
METAR KRYT 241153Z AUTO VRB04KT 10SM CLR 04/M06 A3009 RMK AO2 SLP197
T00441061 10056 20028 52026 $





000
SAUS41 KLWX 241158
MTRDMH
METAR KDMH 241154Z AUTO 08/M04 A3011 RMK AO1 SLP194 T00831044 10083
20061 51028





000
SAUS41 KLWX 241158 COR
MTRNAK
METAR KNAK 241154Z AUTO 32010KT 10SM CLR 08/M02 A3009 RMK AO2 SLP191
T00831017 10083 20067 51024





000
SAUS41 KLWX 241109
MTRRSP
METAR KRSP 241054Z AUTO 33009G16KT 10SM CLR 01/M07 A3004 RMK AO2
SLP190 T00061067 $





000
SAUS41 KLWX 241100
MTRRYT
METAR KRYT 241053Z AUTO 00000KT 10SM CLR 03/M07 A3007 RMK AO2 SLP189
T00331067 $





000
SAUS41 KLWX 241058 COR
MTRNAK
METAR KNAK 241054Z AUTO 30007KT 10SM CLR 07/M02 A3008 RMK AO2 SLP187
T00721022





000
SAUS41 KLWX 241058
MTRDMH
METAR KDMH 241054Z AUTO 07/M04 A3008 RMK AO1 SLP186 T00671039





000
SAUS41 KLWX 241009
MTRRSP
METAR KRSP 240954Z AUTO 33008G15KT 10SM CLR 01/M07 A3001 RMK AO2
SLP178 T00111067 $





000
SAUS41 KLWX 241000
MTRRYT
METAR KRYT 240953Z AUTO 00000KT 10SM CLR 04/M07 A3003 RMK AO2 SLP177
T00391067 $





000
SAUS41 KLWX 240958 COR
MTRNAK
METAR KNAK 240954Z AUTO 29005KT 10SM CLR 07/M02 A3005 RMK AO2 SLP176
T00721017





000
SAUS41 KLWX 240958
MTRDMH
METAR KDMH 240954Z AUTO 07/M03 A3005 RMK AO1 SLP176 T00671033





000
SAUS41 KLWX 240909
MTRRSP
METAR KRSP 240854Z AUTO VRB05G14KT 10SM CLR 02/M06 A2999 RMK AO2
SLP171 T00171061 53010 $





000
SAUS41 KLWX 240900
MTRRYT
METAR KRYT 240853Z AUTO VRB03KT 10SM CLR 04/M06 A3001 RMK AO2 SLP168
T00391056 53009 $





000
SAUS41 KLWX 240858
MTRDMH
METAR KDMH 240854Z AUTO 07/M03 A3002 RMK AO1 SLP166 T00671033 53011





000
SAUS41 KLWX 240858 COR
MTRNAK
METAR KNAK 240854Z AUTO 30006KT 10SM CLR 08/M02 A3002 RMK AO2 SLP168
T00781017 53010





000
SAUS41 KLWX 240809
MTRRSP
METAR KRSP 240754Z AUTO 34011G17KT 10SM CLR 02/M06 A2997 RMK AO2
SLP163 T00221056 $





000
SAUS41 KLWX 240800
MTRRYT
METAR KRYT 240753Z AUTO VRB03KT 10SM CLR 04/M05 A2999 RMK AO2 SLP162
T00441050 $





000
SAUS41 KLWX 240758
MTRDMH
METAR KDMH 240754Z AUTO 07/M03 A3001 RMK AO1 SLP161 T00721028





000
SAUS41 KLWX 240757 COR
MTRNAK
METAR KNAK 240754Z AUTO 32004KT 10SM CLR 07/M01 A3000 RMK AO2 SLP162
T00721006





000
SAUS41 KLWX 240709
MTRRSP
METAR KRSP 240654Z AUTO 34010G22KT 10SM CLR 02/M05 A2996 RMK AO2
SLP160 T00221050 $





000
SAUS41 KLWX 240700
MTRRYT
METAR KRYT 240653Z AUTO VRB03KT 10SM CLR 05/M05 A2998 RMK AO2 SLP159
T00501050 $





000
SAUS41 KLWX 240658
MTRDMH
METAR KDMH 240654Z AUTO 08/M03 A2999 RMK AO1 SLP157 T00781028





000
SAUS41 KLWX 240657 COR
MTRNAK
METAR KNAK 240654Z AUTO 30005KT 10SM CLR 08/M01 A2999 RMK AO2 SLP158
T00781006





000
SAUS41 KLWX 240609
MTRRSP
METAR KRSP 240554Z AUTO 33012G19KT 300V010 10SM CLR 03/M05 A2996 RMK
AO2 SLP160 T00331050 10050 20033 52004 $





000
SAUS41 KLWX 240600
MTRRYT
METAR KRYT 240553Z AUTO VRB03KT 10SM CLR 06/M04 A2998 RMK AO2 SLP157
T00561044 10078 20056 50005 $





000
SAUS41 KLWX 240558
MTRDMH
METAR KDMH 240554Z AUTO 08/M02 A2999 RMK AO1 SLP155 T00831022 10122
20083 53006





000
SAUS41 KLWX 240557 COR
MTRNAK
METAR KNAK 240554Z AUTO 28004KT 10SM CLR 08/M01 A2999 RMK AO2 SLP157
T00781011 10122 20078 51008





000
SAUS41 KLWX 240509
MTRRSP
METAR KRSP 240454Z AUTO 34011G21KT 310V020 10SM CLR 04/M04 A2995 RMK
AO2 SLP156 T00391044 400890033 $





000
SAUS41 KLWX 240500
MTRRYT
METAR KRYT 240453Z AUTO VRB03KT 10SM CLR 06/M04 A2998 RMK AO2 SLP157
T00611039 401110061 $





000
SAUS41 KLWX 240458 COR
MTRNAK
METAR KNAK 240454Z AUTO 29007KT 10SM CLR 09/00 A2999 RMK AO2 SLP156
T00890000 401560083





000
SAUS41 KLWX 240458
MTRDMH
METAR KDMH 240454Z AUTO 09/M02 A2998 RMK AO1 SLP153 T00891017
401500083





000
SAUS41 KLWX 240409
MTRRSP
METAR KRSP 240354Z AUTO 34014G23KT 10SM CLR 04/M04 A2995 RMK AO2 PK
WND 32026/0323 SLP155 T00391039 $





000
SAUS41 KLWX 240400
MTRRYT
METAR KRYT 240353Z AUTO VRB04KT 10SM CLR 07/M04 A2998 RMK AO2 SLP156
T00671039 $





000
SAUS41 KLWX 240358
MTRDMH
METAR KDMH 240354Z AUTO 09/M01 A2998 RMK AO1 SLP150 T00891011





000
SAUS41 KLWX 240357 COR
MTRNAK
METAR KNAK 240354Z AUTO 30007KT 10SM CLR 09/01 A2998 RMK AO2 SLP153
T00940006





000
SAUS41 KLWX 240309
MTRRSP
METAR KRSP 240254Z AUTO 33014G25KT 10SM CLR 04/M03 A2995 RMK AO2 PK
WND 34029/0233 SLP154 T00391028 51017 $





000
SAUS41 KLWX 240300
MTRRYT
METAR KRYT 240253Z AUTO VRB05KT 10SM CLR 07/M03 A2997 RMK AO2 SLP152
T00671028 51017 $





000
SAUS41 KLWX 240258 COR
MTRNAK
METAR KNAK 240254Z AUTO 30012G18KT 10SM CLR 10/00 A2997 RMK AO2
SLP149 T01000000 51032





000
SAUS41 KLWX 240258
MTRDMH
METAR KDMH 240254Z AUTO 09/M01 A2997 RMK AO1 SLP149 T00941011 51030





000
SAUS41 KLWX 240209
MTRRSP
METAR KRSP 240154Z AUTO 33013G23KT 10SM CLR 04/M02 A2994 RMK AO2 PK
WND 34026/0131 SLP153 T00441022 $





000
SAUS41 KLWX 240200
MTRRYT
METAR KRYT 240153Z AUTO VRB04KT 10SM CLR 07/M02 A2996 RMK AO2 SLP150
T00721017 $





000
SAUS41 KLWX 240158
MTRDMH
METAR KDMH 240154Z AUTO 10/M02 A2996 RMK AO1 SLP145 T01001017





000
SAUS41 KLWX 240157 COR
MTRNAK
METAR KNAK 240154Z AUTO 31014G25KT 10SM CLR 11/02 A2996 RMK AO2 PK
WND 30027/0108 SLP147 T01060022





000
SAUS41 KLWX 240109
MTRRSP
METAR KRSP 240054Z AUTO 33012G21KT 10SM CLR 04/M02 A2992 RMK AO2 PK
WND 34027/0004 SLP148 T00441022 $





000
SAUS41 KLWX 240100
MTRRYT
METAR KRYT 240053Z AUTO VRB06KT 10SM CLR 07/M02 A2994 RMK AO2 SLP145
T00721017 $





000
SAUS41 KLWX 240058 COR
MTRNAK
METAR KNAK 240054Z AUTO 31013G22KT 10SM CLR 12/02 A2991 RMK AO2
SLP130 T01170017





000
SAUS41 KLWX 240058
MTRDMH
METAR KDMH 240054Z AUTO 11/00 A2992 RMK AO1 SLP133 T01110000





000
SAUS41 KLWX 240009
MTRRSP
METAR KRSP 232354Z AUTO 34016G26KT 10SM CLR 05/M02 A2989 RMK AO2 PK
WND 33034/2331 SLP137 T00501017 10089 20050 51023 $





000
SAUS41 KLWX 240000
MTRRYT
METAR KRYT 232353Z AUTO VRB03G16KT 10SM FEW040 08/M01 A2992 RMK AO2
SLP135 T00781011 10111 20078 53021 $





000
SAUS41 KLWX 232358 COR
MTRNAK
METAR KNAK 232354Z AUTO 31014G25KT 10SM CLR 12/02 A2987 RMK AO2
SLP117 T01220017 10144 20122 53022





000
SAUS41 KLWX 232358
MTRDMH
METAR KDMH 232354Z AUTO 12/00 A2988 RMK AO1 SLP118 T01220000 10150
20122 53019





000
SAUS41 KLWX 232309
MTRRSP
METAR KRSP 232254Z AUTO 34009G27KT 10SM SCT030 07/M01 A2987 RMK AO2
PK WND 33032/2155 SLP130 T00671006 $





000
SAUS41 KLWX 232300
MTRRYT
METAR KRYT 232253Z AUTO 29007G20KT 250V350 10SM FEW040 09/00 A2988
RMK AO2 SLP123 T00940000 $





000
SAUS41 KLWX 232258
MTRDMH
METAR KDMH 232254Z AUTO 13/00 A2985 RMK AO1 SLP108 T01330000





000
SAUS41 KLWX 232257 COR
MTRNAK
METAR KNAK 232254Z AUTO 30013G29KT 10SM CLR 13/02 A2985 RMK AO2 PK
WND 30029/2245 SLP109 T01330017





000
SAUS41 KLWX 232209
MTRRSP
METAR KRSP 232154Z AUTO 33013G27KT 10SM CLR 08/00 A2984 RMK AO2 PK
WND 33035/2134 SLP117 T00830000 $





000
SAUS41 KLWX 232200
MTRRYT
METAR KRYT 232153Z AUTO 28009G15KT 240V340 10SM BKN041 09/00 A2986
RMK AO2 SLP117 T00940000 $





000
SAUS41 KLWX 232158 COR
MTRNAK
METAR KNAK 232154Z AUTO 31016G24KT 10SM CLR 13/03 A2983 RMK AO2 PK
WND 32028/2103 SLP103 T01330028





000
SAUS41 KLWX 232158
MTRDMH
METAR KDMH 232154Z AUTO 14/01 A2984 RMK AO1 SLP103 T01390011





000
SAUS41 KLWX 232109
MTRRSP
METAR KRSP 232054Z AUTO 32013G34KT 10SM CLR 08/00 A2982 RMK AO2 PK
WND 32037/2008 SLP110 T00830000 58000 $





000
SAUS41 KLWX 232100
MTRRYT
METAR KRYT 232053Z AUTO 33013G24KT 290V360 10SM CLR 10/01 A2985 RMK
AO2 SLP113 T01000006 53009 $





000
SAUS41 KLWX 232058
MTRDMH
METAR KDMH 232054Z AUTO 14/02 A2983 RMK AO1 SLP099 T01440017 53009





000
SAUS41 KLWX 232058 COR
MTRNAK
METAR KNAK 232054Z AUTO 32014G22KT 10SM CLR 14/02 A2981 RMK AO2
SLP096 T01440022 53006





000
SAUS41 KLWX 232036
MTRRSP
SPECI KRSP 232021Z AUTO 33011G36KT 300V010 10SM SCT027 09/00 A2982
RMK AO2 PK WND 32037/2008 $





000
SAUS41 KLWX 232025
MTRRSP
SPECI KRSP 232010Z AUTO 33016G37KT 270V360 10SM BKN027 08/00 A2982
RMK AO2 PK WND 32037/2008 $





000
SAUS41 KLWX 232009
MTRRSP
METAR KRSP 231954Z AUTO 34018G34KT 10SM SCT025 09/01 A2982 RMK AO2
PK WND 34034/1953 SLP110 T00890006 $





000
SAUS41 KLWX 232000
MTRRYT
METAR KRYT 231953Z AUTO 34007G22KT 290V020 10SM FEW037 11/01 A2984
RMK AO2 SLP107 T01060011 $





000
SAUS41 KLWX 231958
MTRDMH
METAR KDMH 231954Z AUTO 14/01 A2981 RMK AO1 SLP095 T01440011





000
SAUS41 KLWX 231958 COR
MTRNAK
METAR KNAK 231954Z AUTO 31013KT 10SM CLR 14/03 A2980 RMK AO2 PK WND
33027/1934 SLP091 T01440028





000
SAUS41 KLWX 231909
MTRRSP
METAR KRSP 231854Z AUTO 33017G29KT 10SM OVC027 07/00 A2983 RMK AO2
PK WND 33033/1840 SLP113 T00670000 $





000
SAUS41 KLWX 231900
MTRRYT
METAR KRYT 231853Z AUTO 30012G19KT 260V330 10SM CLR 11/01 A2984 RMK
AO2 PK WND 27026/1812 SLP107 T01060011 $





000
SAUS41 KLWX 231858
MTRDMH
METAR KDMH 231854Z AUTO 14/01 A2980 RMK AO1 SLP092 T01440011





000
SAUS41 KLWX 231857 COR
MTRNAK
METAR KNAK 231854Z AUTO 32016KT 10SM FEW055 13/03 A2979 RMK AO2
SLP091 T01330028





000
SAUS41 KLWX 231809
MTRRSP
METAR KRSP 231754Z AUTO 31013G28KT 280V340 10SM OVC027 07/M01 A2982
RMK AO2 PK WND 32038/1714 SLP111 T00671006 10089 20039 53017 $





000
SAUS41 KLWX 231800
MTRRYT
METAR KRYT 231753Z AUTO 28014G24KT 250V320 10SM FEW037 10/01 A2983
RMK AO2 SLP103 T01000011 10106 20067 51015 $





000
SAUS41 KLWX 231758 COR
MTRNAK
METAR KNAK 231754Z AUTO 31017G25KT 10SM BKN050 13/02 A2979 RMK AO2
PK WND 33026/1740 SLP089 T01330022 10133 20106 55000





000
SAUS41 KLWX 231758
MTRDMH
METAR KDMH 231754Z AUTO 14/01 A2980 RMK AO1 SLP091 T01440011 10144
20100 53002





000
SAUS41 KLWX 231755
MTRRSP
SPECI KRSP 231740Z AUTO 32014G27KT 10SM BKN027 07/M01 A2982 RMK AO2
PK WND 32038/1714 $





000
SAUS41 KLWX 231709
MTRRSP
METAR KRSP 231654Z AUTO 33022G42KT 10SM CLR 08/00 A2977 RMK AO2 PK
WND 32042/1645 SLP091 T00830000 $





000
SAUS41 KLWX 231700
MTRRYT
METAR KRYT 231653Z AUTO 33009G26KT 270V360 10SM CLR 10/01 A2980 RMK
AO2 PK WND 32026/1644 SLP095 T01000011 $





000
SAUS41 KLWX 231658
MTRDMH
METAR KDMH 231654Z AUTO 13/01 A2979 RMK AO1 SLP087 T01330011





000
SAUS41 KLWX 231656
MTRNAK
METAR KNAK 231654Z AUTO 32015G23KT 10SM SCT050 13/02 A2978 RMK AO2
PK WND 33027/1611 SLP087 T01280022





000
SAUS41 KLWX 231653
MTRRSP
SPECI KRSP 231638Z AUTO 33015G35KT 10SM SCT028 08/00 A2977 RMK AO2
PK WND 33037/1627 $





000
SAUS41 KLWX 231609
MTRRSP
METAR KRSP 231554Z AUTO 34014G34KT 300V360 10SM SCT022 OVC028 08/00
A2979 RMK AO2 PK WND 32034/1551 SLP097 T00780000 $





000
SAUS41 KLWX 231600
MTRRYT
METAR KRYT 231553Z AUTO 30012G20KT 250V350 10SM BKN036 08/00 A2981
RMK AO2 PK WND 34027/1454 SLP098 T00830000 $





000
SAUS41 KLWX 231558
MTRDMH
METAR KDMH 231554Z AUTO 12/01 A2980 RMK AO1 SLP090 T01220006





000
SAUS41 KLWX 231558 COR
MTRNAK
METAR KNAK 231554Z AUTO 31015G24KT 10SM SCT050 12/02 A2979 RMK AO2
PK WND 32027/1502 SLP088 T01220017





000
SAUS41 KLWX 231537
MTRRSP
SPECI KRSP 231522Z AUTO 33017G32KT 10SM BKN022 BKN030 06/M01 A2979
RMK AO2 PK WND 34033/1509 $





000
SAUS41 KLWX 231509
MTRRSP
METAR KRSP 231454Z AUTO 32012G33KT 280V010 10SM SCT022 07/M01 A2977
RMK AO2 PK WND 32033/1449 SLP090 T00671006 51003 $





000
SAUS41 KLWX 231500
MTRRYT
METAR KRYT 231453Z AUTO 33010G30KT 230V020 10SM CLR 09/00 A2978 RMK
AO2 PK WND 29030/1444 SLP086 T00890000 50006 $





000
SAUS41 KLWX 231458
MTRDMH
METAR KDMH 231454Z AUTO 12/M01 A2980 RMK AO1 SLP089 T01171006 50008





000
SAUS41 KLWX 231458 COR
MTRNAK
METAR KNAK 231454Z AUTO 31012G24KT 10SM SCT050 12/01 A2979 RMK AO2
PK WND 33033/1355 SLP090 T01170006 51009





000
SAUS41 KLWX 231409
MTRRSP
METAR KRSP 231354Z AUTO 33010G33KT 290V350 10SM BKN026 BKN031 06/M01
A2977 RMK AO2 PK WND 32036/1303 SLP089 T00561011 $





000
SAUS41 KLWX 231400
MTRRYT
METAR KRYT 231353Z AUTO 32010G22KT 270V010 10SM CLR 08/M01 A2979 RMK
AO2 PK WND 31027/1304 SLP089 T00781006 $





000
SAUS41 KLWX 231358
MTRDMH
METAR KDMH 231354Z AUTO 11/M01 A2980 RMK AO1 SLP090 T01061006





000
SAUS41 KLWX 231358 COR
MTRNAK
METAR KNAK 231354Z AUTO 33026G30KT 10SM FEW050 11/02 A2979 RMK AO2
PK WND 34030/1353 SLP088 T01110017





000
SAUS41 KLWX 231338
MTRRSP
SPECI KRSP 231323Z AUTO 32015G34KT 280V360 10SM SCT025 BKN033 05/M01
A2975 RMK AO2 PK WND 32036/1303 $





000
SAUS41 KLWX 231309
MTRRSP
METAR KRSP 231254Z AUTO 33012G32KT 280V350 10SM OVC027 05/M01 A2976
RMK AO2 PK WND 35035/1240 SLP086 T00501011 $





000
SAUS41 KLWX 231300
MTRRYT
METAR KRYT 231253Z AUTO 30016G29KT 10SM FEW036 07/M01 A2978 RMK AO2
PK WND 27031/1224 SLP087 T00721011 $





000
SAUS41 KLWX 231258
MTRDMH
METAR KDMH 231254Z AUTO 11/00 A2979 RMK AO1 SLP087 T01060000





000
SAUS41 KLWX 231258 COR
MTRNAK
METAR KNAK 231254Z AUTO 31013G27KT 10SM FEW049 11/01 A2978 RMK AO2
PK WND 30027/1224 SLP085 T01060011





000
SAUS41 KLWX 231209
MTRRSP
METAR KRSP 231154Z AUTO 32015G32KT 10SM OVC029 04/M01 A2974 RMK AO2
PK WND 34035/1117 SLP080 70021 T00441011 10056 20039 51028 $





000
SAUS41 KLWX 231200
MTRRYT
METAR KRYT 231153Z AUTO VRB06G15KT 10SM BKN036 07/M01 A2976 RMK AO2
SLP080 70026 T00721011 10083 20061 53024 $





000
SAUS41 KLWX 231158
MTRDMH
METAR KDMH 231154Z AUTO 11/00 A2977 RMK AO1 SLP081 70020 T01060000
10128 20094 53021





000
SAUS41 KLWX 231158 COR
MTRNAK
METAR KNAK 231154Z AUTO 30012G20KT 10SM CLR 11/02 A2976 RMK AO2
SLP081 70004 T01060017 10139 20106 51027





000
SAUS41 KLWX 231124
MTRRSP
SPECI KRSP 231109Z AUTO 34013G29KT 10SM BKN029 04/M02 A2972 RMK AO2
PK WND 33029/1103 $





000
SAUS41 KLWX 231109
MTRRSP
METAR KRSP 231054Z AUTO 33011G25KT 300V360 10SM FEW027 04/M02 A2972
RMK AO2 PK WND 33033/1020 SLP071 T00391017 $





000
SAUS41 KLWX 231101
MTRRSP
SPECI KRSP 231046Z AUTO 34011G29KT 310V020 10SM SCT027 04/M02 A2971
RMK AO2 PK WND 33033/1020 $





000
SAUS41 KLWX 231100
MTRRYT
METAR KRYT 231053Z AUTO 30008G19KT 230V350 10SM FEW036 07/M01 A2974
RMK AO2 SLP070 T00671011 $





000
SAUS41 KLWX 231058 COR
MTRNAK
METAR KNAK 231054Z AUTO 30010G22KT 10SM CLR 11/01 A2975 RMK AO2
SLP075 T01060011





000
SAUS41 KLWX 231058
MTRDMH
METAR KDMH 231054Z AUTO 10/02 A2975 RMK AO1 SLP072 T01000017





000
SAUS41 KLWX 231017
MTRRSP
SPECI KRSP 231008Z AUTO 34009G31KT 300V360 10SM BKN027 04/M01 A2970
RMK AO2 PK WND 34032/0957 $





000
SAUS41 KLWX 231009
MTRRSP
METAR KRSP 230954Z AUTO 33013G35KT 10SM SCT029 04/M01 A2968 RMK AO2
PK WND 32039/0924 SLP057 T00441011 $





000
SAUS41 KLWX 231000
MTRRYT
METAR KRYT 230953Z AUTO VRB05KT 10SM BKN038 07/00 A2971 RMK AO2
SLP060 T00720000 $





000
SAUS41 KLWX 230958
MTRDMH
METAR KDMH 230954Z AUTO 10/01 A2972 RMK AO1 SLP063 T01000011





000
SAUS41 KLWX 230957 COR
MTRNAK
METAR KNAK 230954Z AUTO 29012G19KT 10SM CLR 11/01 A2972 RMK AO2
SLP066 T01110011





000
SAUS41 KLWX 230909
MTRRSP
METAR KRSP 230854Z AUTO 33017G32KT 10SM CLR 05/M01 A2965 RMK AO2 PK
WND 32038/0840 SLP045 T00501006 58011 $





000
SAUS41 KLWX 230900
MTRRYT
METAR KRYT 230853Z AUTO VRB05KT 10SM FEW038 07/01 A2969 RMK AO2
SLP051 T00670006 55004 $





000
SAUS41 KLWX 230858
MTRDMH
METAR KDMH 230854Z AUTO 11/01 A2971 RMK AO1 SLP060 T01060011 53019





000
SAUS41 KLWX 230858 COR
MTRNAK
METAR KNAK 230854Z AUTO 31010G16KT 10SM CLR 12/02 A2968 RMK AO2
SLP054 T01170017 51009





000
SAUS41 KLWX 230809
MTRRSP
METAR KRSP 230754Z AUTO 32016G28KT 10SM CLR 05/M01 A2967 RMK AO2 PK
WND 32028/0754 SLP053 T00501006 $





000
SAUS41 KLWX 230800
MTRRYT
METAR KRYT 230753Z AUTO VRB05KT 10SM CLR 07/00 A2968 RMK AO2 SLP051
T00720000 $





000
SAUS41 KLWX 230758 COR
MTRNAK
METAR KNAK 230754Z AUTO 31011G23KT 10SM CLR 12/02 A2968 RMK AO2
SLP053 T01220022





000
SAUS41 KLWX 230758
MTRDMH
METAR KDMH 230754Z AUTO 11/01 A2969 RMK AO1 SLP054 T01110006





000
SAUS41 KLWX 230709
MTRRSP
METAR KRSP 230654Z AUTO 33011G20KT 10SM CLR 05/00 A2968 RMK AO2 PK
WND 33032/0556 SLP056 T00500000 $





000
SAUS41 KLWX 230700
MTRRYT
METAR KRYT 230653Z AUTO VRB04KT 10SM CLR 07/01 A2969 RMK AO2 SLP053
T00720006 $





000
SAUS41 KLWX 230658
MTRDMH
METAR KDMH 230654Z AUTO 12/01 A2967 RMK AO1 SLP046 T01170011





000
SAUS41 KLWX 230657
MTRNAK
METAR KNAK 230654Z AUTO 31013G19KT 10SM FEW075 13/03 A2967 RMK AO2
SLP050 T01280028





000
SAUS41 KLWX 230609
MTRRSP
METAR KRSP 230554Z AUTO 33013G25KT 10SM CLR 06/00 A2968 RMK AO2 PK
WND 32031/0527 SLP058 T00610000 10117 20061 50004 $





000
SAUS41 KLWX 230559
MTRRYT
METAR KRYT 230553Z AUTO VRB03KT 10SM CLR 08/01 A2970 RMK AO2 SLP057
T00830006 10133 20083 51009 $





000
SAUS41 KLWX 230558 COR
MTRNAK
METAR KNAK 230554Z AUTO 31009G21KT 10SM CLR 14/06 A2966 RMK AO2 PK
WND 33026/0539 SLP045 T01390056 10178 20139 53013





000
SAUS41 KLWX 230558
MTRDMH
METAR KDMH 230554Z AUTO 13/03 A2965 RMK AO1 SLP041 60019 T01280028
10211 20128 50007





000
SAUS41 KLWX 230509
MTRRSP
METAR KRSP 230454Z AUTO 33010G30KT 300V010 10SM CLR 07/01 A2969 RMK
AO2 PK WND 33030/0448 SLP057 T00670011 401940067 $





000
SAUS41 KLWX 230500
MTRRYT
METAR KRYT 230453Z AUTO 28009G15KT 230V320 10SM CLR 09/01 A2970 RMK
AO2 SLP056 T00890011 402110089 $





000
SAUS41 KLWX 230458
MTRDMH
METAR KDMH 230454Z AUTO 14/07 A2967 RMK AO1 SLP047 T01440067
402220111





000
SAUS41 KLWX 230458 COR
MTRNAK
METAR KNAK 230454Z AUTO 32011KT 10SM FEW055 SCT070 SCT080 16/09
A2965 RMK AO2 SLP041 T01560089 402220100





000
SAUS41 KLWX 230409
MTRRSP
METAR KRSP 230354Z AUTO 33014G27KT 10SM CLR 07/02 A2969 RMK AO2 PK
WND 33035/0343 SLP058 T00720022 $





000
SAUS41 KLWX 230400
MTRRYT
METAR KRYT 230353Z AUTO VRB06G18KT 10SM CLR 10/02 A2969 RMK AO2
SLP053 T01000022 $





000
SAUS41 KLWX 230358
MTRDMH
METAR KDMH 230354Z AUTO 16/11 A2965 RMK AO1 SLP038 T01610106





000
SAUS41 KLWX 230356
MTRNAK
METAR KNAK 230354Z AUTO 31007KT 10SM FEW060 FEW075 SCT100 15/12
A2963 RMK AO2 SLP034 T01500117





000
SAUS41 KLWX 230309
MTRRSP
METAR KRSP 230254Z AUTO 34011G29KT 310V010 10SM BKN035 10/04 A2967
RMK AO2 PK WND 35030/0243 SLP049 T01000039 51013 $





000
SAUS41 KLWX 230300
MTRRYT
METAR KRYT 230253Z AUTO VRB06G15KT 10SM BKN049 13/04 A2967 RMK AO2
SLP044 T01280044 53022 $





000
SAUS41 KLWX 230257
MTRDMH
METAR KDMH 230254Z AUTO 16/12 A2963 RMK AO1 SLP034 60019 T01560122
50015





000
SAUS41 KLWX 230257 COR
MTRNAK
METAR KNAK 230254Z AUTO 29004KT 10SM CLR 15/11 A2962 RMK AO2 SLP032
T01500111 50009





000
SAUS41 KLWX 230209
MTRRSP
METAR KRSP 230154Z AUTO 33010G20KT 10SM FEW055 BKN075 12/08 A2966
RMK AO2 SLP042 T01170078 $





000
SAUS41 KLWX 230200
MTRRYT
METAR KRYT 230153Z AUTO 00000KT 10SM SCT070 BKN090 13/09 A2964 RMK
AO2 SLP035 T01280094 $





000
SAUS41 KLWX 230158 COR
MTRNAK
METAR KNAK 230154Z AUTO 35009G18KT 10SM FEW041 17/11 A2963 RMK AO2
SLP036 T01670106





000
SAUS41 KLWX 230158
MTRDMH
METAR KDMH 230154Z AUTO 15/13 A2965 RMK AO1 SLP040 P0016 T01500128





000
SAUS41 KLWX 230109
MTRRSP
METAR KRSP 230054Z AUTO 33006KT 10SM BKN055 12/09 A2965 RMK AO2
SLP040 T01170089 $





000
SAUS41 KLWX 230100
MTRRYT
METAR KRYT 230053Z AUTO 00000KT 9SM SCT065 12/11 A2963 RMK AO2
TSE2358 SLP030 T01170106 $





000
SAUS41 KLWX 230058
MTRDMH
METAR KDMH 230054Z AUTO 16/11 A2964 RMK AO1 SLP036 P0003 T01560111





000
SAUS41 KLWX 230058 COR
MTRNAK
METAR KNAK 230054Z AUTO 00000KT 8SM CLR 15/13 A2960 RMK AO2 SLP025
T01500133





000
SAUS41 KLWX 230011
MTRRYT
SPECI KRYT 230004Z AUTO 00000KT 10SM BKN060 BKN090 12/11 A2961 RMK
AO2 TSE2358 $





000
SAUS41 KLWX 230009
MTRRSP
METAR KRSP 222354Z AUTO 34007KT 10SM BKN048 OVC060 12/09 A2963 RMK
AO2 PK WND 35027/2256 TSE32B39E54RAE14 SLP036 P0012 60015 T01170089
10189 20106 50007 $





000
SAUS41 KLWX 230000
MTRRYT
METAR KRYT 222353Z AUTO 00000KT 10SM TS BKN060 12/11 A2961 RMK AO2
TSE24B28RAE13 SLP025 P0017 60019 T01220106 10211 20122 52008 $





000
SAUS41 KLWX 230000
MTRRSP
SPECI KRSP 222345Z AUTO 33007KT 10SM TS SCT045 BKN050 12/09 A2963
RMK AO2 PK WND 35027/2256 TSE32B39RAE14 P0012 $





000
SAUS41 KLWX 222359 COR
MTRNAK
METAR KNAK 222354Z AUTO 00000KT 10SM OVC100 17/13 A2959 RMK AO2
SLP023 60004 T01720133 10222 20161 55002





000
SAUS41 KLWX 222358
MTRDMH
METAR KDMH 222354Z AUTO 21/12 A2959 RMK AO1 SLP020 60001 T02110117
10222 20189 55004





000
SAUS41 KLWX 222353
MTRRSP
SPECI KRSP 222338Z AUTO 33008KT 10SM SCT050 11/09 A2963 RMK AO2 PK
WND 35027/2256 TSE32RAE14 P0012 $





000
SAUS41 KLWX 222332
MTRRYT
SPECI KRYT 222328Z AUTO 00000KT 10SM TS SCT060 OVC075 13/09 A2961
RMK AO2 TSE24B28RAE13 P0017 $





000
SAUS41 KLWX 222324
MTRRSP
SPECI KRSP 222309Z AUTO 31009G15KT 3SM -TSRA BR SCT036 BKN055 OVC075
11/09 A2963 RMK AO2 PK WND 35027/2256 P0012 $





000
SAUS41 KLWX 222316
MTRRYT
SPECI KRYT 222309Z AUTO 20007KT 170V240 3SM -TSRA SCT044 BKN060
OVC080 13/09 A2960 RMK AO2 P0017 $





000
SAUS41 KLWX 222312
MTRRSP
SPECI KRSP 222257Z AUTO 34014G27KT 300V010 3/4SM +TSRA FEW024 SCT038
BKN050 12/08 A2963 RMK AO2 PK WND 35027/2256 P0008 $





000
SAUS41 KLWX 222305
MTRRYT
SPECI KRYT 222258Z AUTO 25008G19KT 210V290 1 3/4SM +TSRA FEW033
BKN046 OVC100 14/08 A2961 RMK AO2 P0011 $





000
SAUS41 KLWX 222258
MTRDMH
METAR KDMH 222254Z AUTO 22/12 A2959 RMK AO1 SLP018 T02170117





000
SAUS41 KLWX 222258 COR
MTRNAK
METAR KNAK 222254Z AUTO 11003KT 10SM FEW110 16/13 A2958 RMK AO2
SLP018 T01610133





000
SAUS41 KLWX 222255
MTRRSP
SPECI KRSP 222240Z AUTO 30006KT 10SM TS FEW055 17/09 A2961 RMK AO2
TSB34 $





000
SAUS41 KLWX 222253
MTRRYT
METAR KRYT 222253Z AUTO 29007G16KT 240V330 7SM -TSRA SCT045 BKN055
OVC110 16/07 A2962 RMK AO2 TSB34RAB37 PRESRR SLP028 P0002 T01560072
$





000
SAUS41 KLWX 222247
MTRRYT
SPECI KRYT 222240Z AUTO 34010G18KT 320V020 10SM -TSRA FEW048 BKN100
19/11 A2959 RMK AO2 TSB34RAB37 PRESRR P0000 $





000
SAUS41 KLWX 222209
MTRRSP
METAR KRSP 222154Z AUTO 29008G14KT 260V320 10SM FEW031 17/09 A2961
RMK AO2 SLP026 T01720094 $





000
SAUS41 KLWX 222200
MTRRYT
METAR KRYT 222153Z AUTO VRB05KT 10SM FEW043 SCT100 21/11 A2958 RMK
AO2 SLP011 T02060106 $





000
SAUS41 KLWX 222158
MTRDMH
METAR KDMH 222154Z AUTO 22/12 A2958 RMK AO1 SLP018 T02220117





000
SAUS41 KLWX 222157 COR
MTRNAK
METAR KNAK 222154Z AUTO 27005KT 10SM OVC110 21/12 A2959 RMK AO2
SLP022 T02110117





000
SAUS41 KLWX 222108
MTRRSP
METAR KRSP 222054Z AUTO 28012G17KT 10SM FEW026 SCT033 18/11 A2961
RMK AO2 SLP025 T01830106 56019 $





000
SAUS41 KLWX 222100
MTRRYT
METAR KRYT 222053Z AUTO VRB05KT 10SM SCT038 BKN048 BKN065 19/12
A2958 RMK AO2 SLP014 T01940117 56019 $





000
SAUS41 KLWX 222058
MTRDMH
METAR KDMH 222054Z AUTO 21/13 A2960 RMK AO1 SLP023 60001 T02110128
58018





000
SAUS41 KLWX 222058 COR
MTRNAK
METAR KNAK 222054Z AUTO VRB04KT 10SM BKN075 BKN100 OVC110 21/13
A2960 RMK AO2 RAE1955 SLP026 P0000 60004 T02060128 58013





000
SAUS41 KLWX 222009
MTRRSP
METAR KRSP 221954Z AUTO 27013G20KT 10SM FEW034 SCT044 17/11 A2963
RMK AO2 SLP032 T01720106 $





000
SAUS41 KLWX 222000
MTRRYT
METAR KRYT 221953Z AUTO 25006G16KT 10SM FEW030 BKN038 BKN047 18/12
A2960 RMK AO2 SLP019 T01830117 $





000
SAUS41 KLWX 221958
MTRDMH
METAR KDMH 221954Z AUTO 20/13 A2962 RMK AO1 SLP029 T02000128





000
SAUS41 KLWX 221958 COR
MTRNAK
METAR KNAK 221954Z AUTO 34004KT 9SM -RA OVC090 17/13 A2962 RMK AO2
SLP031 P0003 T01720128





000
SAUS41 KLWX 221909
MTRRSP
METAR KRSP 221854Z AUTO VRB06G16KT 10SM BKN033 BKN060 15/11 A2965
RMK AO2 SLP041 T01500106 $





000
SAUS41 KLWX 221900
MTRRYT
METAR KRYT 221853Z AUTO 25005KT 10SM BKN038 BKN045 OVC080 18/11
A2962 RMK AO2 SLP028 T01780111 $





000
SAUS41 KLWX 221858 COR
MTRNAK
METAR KNAK 221854Z AUTO 32007KT 5SM -RA OVC090 19/11 A2964 RMK AO2
RAB42 SLP038 P0001 T01890111





000
SAUS41 KLWX 221858
MTRDMH
METAR KDMH 221854Z AUTO 19/13 A2965 RMK AO1 SLP038 P0001 T01890128





000
SAUS41 KLWX 221809
MTRRSP
METAR KRSP 221754Z AUTO 29007G15KT 10SM BKN075 OVC090 15/10 A2967
RMK AO2 RAE51 SLP048 P0002 60006 T01500100 10194 20144 57010 $





000
SAUS41 KLWX 221800
MTRRYT
METAR KRYT 221753Z AUTO 23008KT 10SM SCT040 BKN060 OVC090 17/11
A2964 RMK AO2 RAE50 SLP034 P0001 60007 T01670111 10189 20128 58010 $





000
SAUS41 KLWX 221758
MTRDMH
METAR KDMH 221754Z AUTO 22/11 A2965 RMK AO1 SLP041 T02170106 10217
20122 55013





000
SAUS41 KLWX 221758 COR
MTRNAK
METAR KNAK 221754Z AUTO 17005KT 10SM FEW049 SCT110 19/10 A2964 RMK
AO2 SLP038 T01940100 10194 20122 56020





000
SAUS41 KLWX 221757 COR
MTRNAK
METAR KNAK 221754Z AUTO 17005KT 10SM FEW049 SCT110 19/10 A2964 RMK
AO2 SLP038 T01940100 10194 20122 56020





000
SAUS41 KLWX 221709
MTRRSP
METAR KRSP 221654Z AUTO 31011G20KT 7SM -RA BKN070 OVC085 15/10 A2968
RMK AO2 SLP050 P0002 T01500100 $





000
SAUS41 KLWX 221700
MTRRYT
METAR KRYT 221653Z AUTO 22005KT 6SM -RA BKN075 OVC085 16/12 A2966
RMK AO2 SLP040 P0005 T01610117 $





000
SAUS41 KLWX 221658
MTRDMH
METAR KDMH 221654Z AUTO 20/10 A2965 RMK AO1 SLP039 T02000100





000
SAUS41 KLWX 221657 COR
MTRNAK
METAR KNAK 221654Z AUTO 13009KT 10SM CLR 16/11 A2965 RMK AO2 SLP043
T01610106





000
SAUS41 KLWX 221609
MTRRSP
METAR KRSP 221554Z AUTO 30008G16KT 270V330 6SM -RA BKN070 OVC080
15/09 A2970 RMK AO2 RAB06 SLP057 P0002 T01500094 $





000
SAUS41 KLWX 221600
MTRRYT
METAR KRYT 221553Z AUTO 24005KT 7SM -RA OVC075 17/09 A2967 RMK AO2
RAB14 SLP046 P0001 T01670094 $





000
SAUS41 KLWX 221558 COR
MTRNAK
METAR KNAK 221554Z AUTO 13011KT 10SM CLR 15/10 A2967 RMK AO2 SLP050
T01500100





000
SAUS41 KLWX 221558
MTRDMH
METAR KDMH 221554Z AUTO 18/09 A2967 RMK AO1 SLP048 T01830089





000
SAUS41 KLWX 221509
MTRRSP
METAR KRSP 221454Z AUTO 30007G18KT 260V330 10SM BKN090 18/04 A2970
RMK AO2 SLP057 T01780039 56013 $





000
SAUS41 KLWX 221500
MTRRYT
METAR KRYT 221453Z AUTO VRB04KT 10SM FEW060 BKN085 19/05 A2967 RMK
AO2 SLP044 T01890050 56014 $





000
SAUS41 KLWX 221458
MTRDMH
METAR KDMH 221454Z AUTO 18/09 A2969 RMK AO1 SLP054 T01780094 58020





000
SAUS41 KLWX 221456
MTRNAK
METAR KNAK 221454Z AUTO 14012KT 10SM CLR 14/10 A2970 RMK AO2 SLP058
T01390100 56019





000
SAUS41 KLWX 221409
MTRRSP
METAR KRSP 221354Z AUTO 30008KT 270V330 10SM FEW120 18/02 A2971 RMK
AO2 SLP057 T01830017 $





000
SAUS41 KLWX 221400
MTRRYT
METAR KRYT 221353Z AUTO 00000KT 10SM FEW120 16/04 A2968 RMK AO2
SLP045 T01560039 $





000
SAUS41 KLWX 221358
MTRDMH
METAR KDMH 221354Z AUTO 16/08 A2971 RMK AO1 SLP061 T01560078





000
SAUS41 KLWX 221356
MTRNAK
METAR KNAK 221354Z AUTO 14006KT 10SM CLR 14/10 A2972 RMK AO2 SLP064
T01440100





000
SAUS41 KLWX 221309
MTRRSP
METAR KRSP 221254Z AUTO 28007KT 240V330 10SM CLR 18/01 A2972 RMK AO2
SLP062 T01830011 $





000
SAUS41 KLWX 221300
MTRRYT
METAR KRYT 221253Z AUTO 00000KT 10SM CLR 15/06 A2969 RMK AO2 SLP050
T01500061 $





000
SAUS41 KLWX 221259 COR
MTRNAK
METAR KNAK 221254Z AUTO 19005KT 10SM CLR 13/09 A2973 RMK AO2 SLP070
T01330089





000
SAUS41 KLWX 221258
MTRDMH
METAR KDMH 221254Z AUTO 14/09 A2973 RMK AO1 SLP069 T01390089





000
SAUS41 KLWX 221209
MTRRSP
METAR KRSP 221154Z AUTO 28009G15KT 10SM CLR 15/M01 A2974 RMK AO2
SLP072 T01501006 10150 20122 56008 $





000
SAUS41 KLWX 221200
MTRRYT
METAR KRYT 221153Z AUTO 00000KT 10SM CLR 13/02 A2971 RMK AO2 SLP058
T01280022 10144 20089 56012 $





000
SAUS41 KLWX 221158
MTRDMH
METAR KDMH 221154Z AUTO 12/09 A2975 RMK AO1 SLP074 T01220089 10128
20111 56015





000
SAUS41 KLWX 221158 COR
MTRNAK
METAR KNAK 221154Z AUTO 17006KT 10SM CLR 12/09 A2975 RMK AO2 SLP077
T01220089 10122 20100 56012





000
SAUS41 KLWX 221109
MTRRSP
METAR KRSP 221054Z AUTO 27009G15KT 10SM CLR 14/M01 A2975 RMK AO2
SLP073 T01441011 $





000
SAUS41 KLWX 221100
MTRRYT
METAR KRYT 221053Z AUTO 00000KT 10SM CLR 10/02 A2972 RMK AO2 SLP061
T01000017 $





000
SAUS41 KLWX 221058
MTRDMH
METAR KDMH 221054Z AUTO 11/08 A2977 RMK AO1 SLP079 T01110083





000
SAUS41 KLWX 221058 COR
MTRNAK
METAR KNAK 221054Z AUTO 17005KT 10SM CLR 11/08 A2977 RMK AO2 SLP081
T01060083





000
SAUS41 KLWX 221009
MTRRSP
METAR KRSP 220954Z AUTO 26006KT 10SM CLR 14/M02 A2975 RMK AO2 SLP073
T01441017 $





000
SAUS41 KLWX 221000
MTRRYT
METAR KRYT 220953Z AUTO 23004KT 10SM CLR 11/01 A2972 RMK AO2 SLP060
T01060011 $





000
SAUS41 KLWX 220958
MTRDMH
METAR KDMH 220954Z AUTO 11/08 A2978 RMK AO1 SLP083 T01110078





000
SAUS41 KLWX 220958 COR
MTRNAK
METAR KNAK 220954Z AUTO 17005KT 10SM CLR 11/09 A2977 RMK AO2 SLP083
T01110089





000
SAUS41 KLWX 220909
MTRRSP
METAR KRSP 220854Z AUTO 25011G16KT 210V270 10SM CLR 13/M02 A2977 RMK
AO2 SLP080 T01331017 56021 $





000
SAUS41 KLWX 220900
MTRRYT
METAR KRYT 220853Z AUTO 23004KT 10SM CLR 09/02 A2975 RMK AO2 SLP070
T00940017 56022 $





000
SAUS41 KLWX 220858
MTRDMH
METAR KDMH 220854Z AUTO 12/08 A2979 RMK AO1 SLP089 T01170078 56023





000
SAUS41 KLWX 220857 COR
MTRNAK
METAR KNAK 220854Z AUTO 18004KT 10SM CLR 11/09 A2979 RMK AO2 SLP089
T01110089 56024





    US Dept of Commerce
    National Oceanic and Atmospheric Administration
    National Weather Service
    1325 East West Highway
    Silver Spring, MD 20910
    Page Author: NWS Internet Services Team
Disclaimer
Information Quality
Credits
Glossary
Privacy Policy
Freedom of Information Act (FOIA)
About Us
Career Opportunities